sensor_id;sensor_type;location;lat;lon;timestamp;P1;durP1;ratioP1;P2;durP2;ratioP2
53654;SDS011;39558;52.028;8.536;2023-03-01T00:01:58;4.65;;;2.90;;
53654;SDS011;39558;52.028;8.536;2023-03-01T00:04:24;6.13;;;3.28;;
53654;SDS011;39558;52.028;8.536;2023-03-01T00:06:50;5.88;;;3.28;;
53654;SDS011;39558;52.028;8.536;2023-03-01T00:09:16;6.13;;;3.20;;
53654;SDS011;39558;52.028;8.536;2023-03-01T00:11:42;4.50;;;2.72;;
53654;SDS011;39558;52.028;8.536;2023-03-01T00:14:09;7.78;;;3.22;;
53654;SDS011;39558;52.028;8.536;2023-03-01T00:16:36;5.78;;;3.05;;
53654;SDS011;39558;52.028;8.536;2023-03-01T00:19:04;4.22;;;2.83;;
53654;SDS011;39558;52.028;8.536;2023-03-01T00:21:30;5.40;;;2.83;;
53654;SDS011;39558;52.028;8.536;2023-03-01T00:23:56;6.85;;;3.33;;
53654;SDS011;39558;52.028;8.536;2023-03-01T00:26:23;5.97;;;3.05;;
53654;SDS011;39558;52.028;8.536;2023-03-01T00:28:49;5.50;;;3.13;;
53654;SDS011;39558;52.028;8.536;2023-03-01T00:31:16;5.75;;;3.38;;
53654;SDS011;39558;52.028;8.536;2023-03-01T00:33:43;5.95;;;3.33;;
53654;SDS011;39558;52.028;8.536;2023-03-01T00:36:09;5.88;;;3.25;;
53654;SDS011;39558;52.028;8.536;2023-03-01T00:38:37;6.43;;;3.72;;
53654;SDS011;39558;52.028;8.536;2023-03-01T00:41:03;5.40;;;3.20;;
53654;SDS011;39558;52.028;8.536;2023-03-01T00:43:30;6.55;;;3.63;;
53654;SDS011;39558;52.028;8.536;2023-03-01T00:45:56;5.75;;;3.22;;
53654;SDS011;39558;52.028;8.536;2023-03-01T00:48:21;5.80;;;3.05;;
53654;SDS011;39558;52.028;8.536;2023-03-01T00:50:47;5.55;;;3.17;;
53654;SDS011;39558;52.028;8.536;2023-03-01T00:53:13;5.57;;;3.20;;
53654;SDS011;39558;52.028;8.536;2023-03-01T00:55:39;4.85;;;2.85;;
53654;SDS011;39558;52.028;8.536;2023-03-01T00:58:05;6.60;;;3.22;;
53654;SDS011;39558;52.028;8.536;2023-03-01T01:00:31;6.43;;;3.33;;
53654;SDS011;39558;52.028;8.536;2023-03-01T01:02:57;6.13;;;3.08;;
53654;SDS011;39558;52.028;8.536;2023-03-01T01:05:23;7.10;;;4.00;;
53654;SDS011;39558;52.028;8.536;2023-03-01T01:07:48;6.25;;;3.60;;
53654;SDS011;39558;52.028;8.536;2023-03-01T01:10:15;5.75;;;3.10;;
53654;SDS011;39558;52.028;8.536;2023-03-01T01:12:42;7.35;;;3.40;;
53654;SDS011;39558;52.028;8.536;2023-03-01T01:15:08;6.03;;;3.15;;
53654;SDS011;39558;52.028;8.536;2023-03-01T01:17:34;6.07;;;3.20;;
53654;SDS011;39558;52.028;8.536;2023-03-01T01:20:00;5.00;;;3.03;;
53654;SDS011;39558;52.028;8.536;2023-03-01T01:22:25;6.63;;;3.72;;
53654;SDS011;39558;52.028;8.536;2023-03-01T01:24:51;4.88;;;3.22;;
53654;SDS011;39558;52.028;8.536;2023-03-01T01:27:17;6.43;;;3.60;;
53654;SDS011;39558;52.028;8.536;2023-03-01T01:29:43;6.90;;;4.00;;
53654;SDS011;39558;52.028;8.536;2023-03-01T01:32:09;6.22;;;3.63;;
53654;SDS011;39558;52.028;8.536;2023-03-01T01:34:35;5.70;;;3.70;;
53654;SDS011;39558;52.028;8.536;2023-03-01T01:37:01;5.72;;;3.50;;
53654;SDS011;39558;52.028;8.536;2023-03-01T01:39:27;6.55;;;3.58;;
53654;SDS011;39558;52.028;8.536;2023-03-01T01:41:53;6.38;;;3.38;;
53654;SDS011;39558;52.028;8.536;2023-03-01T01:44:20;7.13;;;3.25;;
53654;SDS011;39558;52.028;8.536;2023-03-01T01:46:52;5.60;;;3.47;;
53654;SDS011;39558;52.028;8.536;2023-03-01T01:49:24;6.00;;;3.13;;
53654;SDS011;39558;52.028;8.536;2023-03-01T01:51:51;5.90;;;3.45;;
53654;SDS011;39558;52.028;8.536;2023-03-01T01:54:23;5.18;;;3.05;;
53654;SDS011;39558;52.028;8.536;2023-03-01T01:57:00;7.82;;;3.83;;
53654;SDS011;39558;52.028;8.536;2023-03-01T01:59:27;5.72;;;3.33;;
53654;SDS011;39558;52.028;8.536;2023-03-01T02:01:54;5.97;;;3.38;;
53654;SDS011;39558;52.028;8.536;2023-03-01T02:04:20;5.22;;;3.50;;
53654;SDS011;39558;52.028;8.536;2023-03-01T02:06:51;5.95;;;3.55;;
53654;SDS011;39558;52.028;8.536;2023-03-01T02:09:20;7.40;;;3.47;;
53654;SDS011;39558;52.028;8.536;2023-03-01T02:11:46;5.82;;;3.10;;
53654;SDS011;39558;52.028;8.536;2023-03-01T02:14:12;7.40;;;3.88;;
53654;SDS011;39558;52.028;8.536;2023-03-01T02:16:38;5.60;;;3.22;;
53654;SDS011;39558;52.028;8.536;2023-03-01T02:19:04;6.35;;;3.50;;
53654;SDS011;39558;52.028;8.536;2023-03-01T02:21:46;5.15;;;3.03;;
53654;SDS011;39558;52.028;8.536;2023-03-01T02:24:40;5.55;;;3.08;;
53654;SDS011;39558;52.028;8.536;2023-03-01T02:27:03;6.00;;;3.65;;
53654;SDS011;39558;52.028;8.536;2023-03-01T02:29:29;6.20;;;3.60;;
53654;SDS011;39558;52.028;8.536;2023-03-01T02:31:56;5.63;;;3.10;;
53654;SDS011;39558;52.028;8.536;2023-03-01T02:34:23;6.25;;;3.85;;
53654;SDS011;39558;52.028;8.536;2023-03-01T02:37:00;5.45;;;3.63;;
53654;SDS011;39558;52.028;8.536;2023-03-01T02:39:42;5.80;;;3.38;;
53654;SDS011;39558;52.028;8.536;2023-03-01T02:42:14;4.82;;;2.95;;
53654;SDS011;39558;52.028;8.536;2023-03-01T02:44:41;5.30;;;3.17;;
53654;SDS011;39558;52.028;8.536;2023-03-01T02:47:07;6.85;;;3.08;;
53654;SDS011;39558;52.028;8.536;2023-03-01T02:49:34;5.93;;;3.50;;
53654;SDS011;39558;52.028;8.536;2023-03-01T02:54:56;6.13;;;3.63;;
53654;SDS011;39558;52.028;8.536;2023-03-01T02:57:23;5.32;;;3.60;;
53654;SDS011;39558;52.028;8.536;2023-03-01T02:59:52;5.22;;;3.08;;
53654;SDS011;39558;52.028;8.536;2023-03-01T03:02:29;5.57;;;3.42;;
53654;SDS011;39558;52.028;8.536;2023-03-01T03:05:02;5.47;;;2.90;;
53654;SDS011;39558;52.028;8.536;2023-03-01T03:07:31;5.68;;;2.90;;
53654;SDS011;39558;52.028;8.536;2023-03-01T03:09:56;5.47;;;2.72;;
53654;SDS011;39558;52.028;8.536;2023-03-01T03:12:22;6.20;;;3.15;;
53654;SDS011;39558;52.028;8.536;2023-03-01T03:14:48;7.03;;;3.63;;
53654;SDS011;39558;52.028;8.536;2023-03-01T03:17:14;6.30;;;3.05;;
53654;SDS011;39558;52.028;8.536;2023-03-01T03:19:40;5.65;;;3.35;;
53654;SDS011;39558;52.028;8.536;2023-03-01T03:22:06;6.13;;;3.08;;
53654;SDS011;39558;52.028;8.536;2023-03-01T03:24:33;6.68;;;3.80;;
53654;SDS011;39558;52.028;8.536;2023-03-01T03:27:03;5.82;;;3.67;;
53654;SDS011;39558;52.028;8.536;2023-03-01T03:29:29;5.07;;;3.17;;
53654;SDS011;39558;52.028;8.536;2023-03-01T03:31:55;4.47;;;2.78;;
53654;SDS011;39558;52.028;8.536;2023-03-01T03:34:21;5.82;;;3.28;;
53654;SDS011;39558;52.028;8.536;2023-03-01T03:36:47;5.78;;;3.38;;
53654;SDS011;39558;52.028;8.536;2023-03-01T03:39:13;5.57;;;3.40;;
53654;SDS011;39558;52.028;8.536;2023-03-01T03:41:39;5.18;;;3.38;;
53654;SDS011;39558;52.028;8.536;2023-03-01T03:44:04;5.43;;;3.38;;
53654;SDS011;39558;52.028;8.536;2023-03-01T03:46:30;5.85;;;3.33;;
53654;SDS011;39558;52.028;8.536;2023-03-01T03:48:56;5.97;;;3.55;;
53654;SDS011;39558;52.028;8.536;2023-03-01T03:51:23;5.88;;;3.50;;
53654;SDS011;39558;52.028;8.536;2023-03-01T03:53:49;6.57;;;3.67;;
53654;SDS011;39558;52.028;8.536;2023-03-01T03:56:15;5.03;;;3.05;;
53654;SDS011;39558;52.028;8.536;2023-03-01T03:58:41;7.18;;;4.05;;
53654;SDS011;39558;52.028;8.536;2023-03-01T04:01:07;5.40;;;3.47;;
53654;SDS011;39558;52.028;8.536;2023-03-01T04:03:33;6.68;;;3.85;;
53654;SDS011;39558;52.028;8.536;2023-03-01T04:06:00;6.07;;;3.58;;
53654;SDS011;39558;52.028;8.536;2023-03-01T04:08:27;7.28;;;3.60;;
53654;SDS011;39558;52.028;8.536;2023-03-01T04:10:56;6.18;;;3.35;;
53654;SDS011;39558;52.028;8.536;2023-03-01T04:13:23;7.60;;;3.40;;
53654;SDS011;39558;52.028;8.536;2023-03-01T04:15:50;6.85;;;3.50;;
53654;SDS011;39558;52.028;8.536;2023-03-01T04:18:17;6.07;;;3.38;;
53654;SDS011;39558;52.028;8.536;2023-03-01T04:20:44;6.95;;;3.38;;
53654;SDS011;39558;52.028;8.536;2023-03-01T04:23:14;8.98;;;4.40;;
53654;SDS011;39558;52.028;8.536;2023-03-01T04:25:51;7.82;;;3.75;;
53654;SDS011;39558;52.028;8.536;2023-03-01T04:28:39;7.20;;;3.72;;
53654;SDS011;39558;52.028;8.536;2023-03-01T04:31:12;6.60;;;3.50;;
53654;SDS011;39558;52.028;8.536;2023-03-01T04:33:39;4.93;;;3.10;;
53654;SDS011;39558;52.028;8.536;2023-03-01T04:36:05;5.07;;;3.08;;
53654;SDS011;39558;52.028;8.536;2023-03-01T04:38:33;7.32;;;4.03;;
53654;SDS011;39558;52.028;8.536;2023-03-01T04:40:59;6.32;;;3.33;;
53654;SDS011;39558;52.028;8.536;2023-03-01T04:43:25;6.50;;;3.58;;
53654;SDS011;39558;52.028;8.536;2023-03-01T04:45:51;7.28;;;3.58;;
53654;SDS011;39558;52.028;8.536;2023-03-01T04:48:17;5.78;;;3.25;;
53654;SDS011;39558;52.028;8.536;2023-03-01T04:50:42;5.80;;;3.63;;
53654;SDS011;39558;52.028;8.536;2023-03-01T04:53:08;6.03;;;3.17;;
53654;SDS011;39558;52.028;8.536;2023-03-01T04:55:34;6.20;;;3.75;;
53654;SDS011;39558;52.028;8.536;2023-03-01T04:58:00;6.32;;;3.17;;
53654;SDS011;39558;52.028;8.536;2023-03-01T05:00:26;6.25;;;3.58;;
53654;SDS011;39558;52.028;8.536;2023-03-01T05:02:56;6.43;;;3.55;;
53654;SDS011;39558;52.028;8.536;2023-03-01T05:07:50;9.40;;;4.43;;
53654;SDS011;39558;52.028;8.536;2023-03-01T05:10:16;5.38;;;3.42;;
53654;SDS011;39558;52.028;8.536;2023-03-01T05:12:42;5.97;;;3.15;;
53654;SDS011;39558;52.028;8.536;2023-03-01T05:15:08;7.75;;;3.47;;
53654;SDS011;39558;52.028;8.536;2023-03-01T05:17:34;7.35;;;3.60;;
53654;SDS011;39558;52.028;8.536;2023-03-01T05:20:00;6.53;;;3.88;;
53654;SDS011;39558;52.028;8.536;2023-03-01T05:22:30;5.38;;;3.38;;
53654;SDS011;39558;52.028;8.536;2023-03-01T05:24:56;6.80;;;3.47;;
53654;SDS011;39558;52.028;8.536;2023-03-01T05:27:22;6.63;;;3.22;;
53654;SDS011;39558;52.028;8.536;2023-03-01T05:29:48;4.72;;;3.22;;
53654;SDS011;39558;52.028;8.536;2023-03-01T05:32:14;5.32;;;3.15;;
53654;SDS011;39558;52.028;8.536;2023-03-01T05:34:41;5.63;;;3.25;;
53654;SDS011;39558;52.028;8.536;2023-03-01T05:37:07;5.18;;;3.00;;
53654;SDS011;39558;52.028;8.536;2023-03-01T05:39:33;7.07;;;3.25;;
53654;SDS011;39558;52.028;8.536;2023-03-01T05:42:00;6.72;;;3.40;;
53654;SDS011;39558;52.028;8.536;2023-03-01T05:44:27;7.28;;;4.10;;
53654;SDS011;39558;52.028;8.536;2023-03-01T05:46:53;6.38;;;3.80;;
53654;SDS011;39558;52.028;8.536;2023-03-01T05:49:19;6.97;;;3.80;;
53654;SDS011;39558;52.028;8.536;2023-03-01T05:51:49;7.72;;;3.05;;
53654;SDS011;39558;52.028;8.536;2023-03-01T05:54:15;5.80;;;3.42;;
53654;SDS011;39558;52.028;8.536;2023-03-01T05:56:41;5.80;;;3.50;;
53654;SDS011;39558;52.028;8.536;2023-03-01T05:59:08;5.80;;;3.47;;
53654;SDS011;39558;52.028;8.536;2023-03-01T06:01:34;9.23;;;3.97;;
53654;SDS011;39558;52.028;8.536;2023-03-01T06:04:00;8.18;;;3.28;;
53654;SDS011;39558;52.028;8.536;2023-03-01T06:06:26;6.75;;;3.10;;
53654;SDS011;39558;52.028;8.536;2023-03-01T06:08:53;7.15;;;3.22;;
53654;SDS011;39558;52.028;8.536;2023-03-01T06:11:19;5.63;;;3.10;;
53654;SDS011;39558;52.028;8.536;2023-03-01T06:13:45;6.05;;;3.58;;
53654;SDS011;39558;52.028;8.536;2023-03-01T06:16:11;5.90;;;3.50;;
53654;SDS011;39558;52.028;8.536;2023-03-01T06:18:38;7.30;;;3.90;;
53654;SDS011;39558;52.028;8.536;2023-03-01T06:21:04;6.72;;;3.80;;
53654;SDS011;39558;52.028;8.536;2023-03-01T06:23:30;5.85;;;3.15;;
53654;SDS011;39558;52.028;8.536;2023-03-01T06:25:56;5.05;;;3.15;;
53654;SDS011;39558;52.028;8.536;2023-03-01T06:28:22;5.28;;;3.10;;
53654;SDS011;39558;52.028;8.536;2023-03-01T06:30:52;4.20;;;2.92;;
53654;SDS011;39558;52.028;8.536;2023-03-01T06:33:18;7.72;;;4.28;;
53654;SDS011;39558;52.028;8.536;2023-03-01T06:35:49;6.53;;;3.35;;
53654;SDS011;39558;52.028;8.536;2023-03-01T06:38:15;5.22;;;3.30;;
53654;SDS011;39558;52.028;8.536;2023-03-01T06:40:43;6.35;;;3.15;;
53654;SDS011;39558;52.028;8.536;2023-03-01T06:43:09;6.40;;;3.72;;
53654;SDS011;39558;52.028;8.536;2023-03-01T06:45:35;5.68;;;3.40;;
53654;SDS011;39558;52.028;8.536;2023-03-01T06:48:03;6.97;;;3.80;;
53654;SDS011;39558;52.028;8.536;2023-03-01T06:50:29;5.55;;;3.38;;
53654;SDS011;39558;52.028;8.536;2023-03-01T06:52:55;7.45;;;3.70;;
53654;SDS011;39558;52.028;8.536;2023-03-01T06:55:21;6.07;;;3.60;;
53654;SDS011;39558;52.028;8.536;2023-03-01T06:57:47;5.80;;;3.05;;
53654;SDS011;39558;52.028;8.536;2023-03-01T07:00:13;7.18;;;3.35;;
53654;SDS011;39558;52.028;8.536;2023-03-01T07:02:39;5.90;;;3.35;;
53654;SDS011;39558;52.028;8.536;2023-03-01T07:05:05;7.03;;;3.55;;
53654;SDS011;39558;52.028;8.536;2023-03-01T07:07:31;5.97;;;3.55;;
53654;SDS011;39558;52.028;8.536;2023-03-01T07:09:57;7.53;;;3.80;;
53654;SDS011;39558;52.028;8.536;2023-03-01T07:12:23;5.93;;;3.40;;
53654;SDS011;39558;52.028;8.536;2023-03-01T07:14:49;6.72;;;3.67;;
53654;SDS011;39558;52.028;8.536;2023-03-01T07:17:15;6.35;;;3.55;;
53654;SDS011;39558;52.028;8.536;2023-03-01T07:19:41;6.82;;;3.38;;
53654;SDS011;39558;52.028;8.536;2023-03-01T07:22:07;6.72;;;3.38;;
53654;SDS011;39558;52.028;8.536;2023-03-01T07:24:34;8.10;;;3.88;;
53654;SDS011;39558;52.028;8.536;2023-03-01T07:27:00;6.53;;;3.60;;
53654;SDS011;39558;52.028;8.536;2023-03-01T07:29:26;5.45;;;3.33;;
53654;SDS011;39558;52.028;8.536;2023-03-01T07:31:53;7.90;;;4.32;;
53654;SDS011;39558;52.028;8.536;2023-03-01T07:34:19;5.50;;;3.60;;
53654;SDS011;39558;52.028;8.536;2023-03-01T07:36:45;5.90;;;3.67;;
53654;SDS011;39558;52.028;8.536;2023-03-01T07:39:11;7.18;;;3.70;;
53654;SDS011;39558;52.028;8.536;2023-03-01T07:41:37;6.43;;;4.00;;
53654;SDS011;39558;52.028;8.536;2023-03-01T07:44:03;7.65;;;3.97;;
53654;SDS011;39558;52.028;8.536;2023-03-01T07:46:29;8.57;;;4.32;;
53654;SDS011;39558;52.028;8.536;2023-03-01T07:48:55;8.35;;;4.25;;
53654;SDS011;39558;52.028;8.536;2023-03-01T07:51:22;5.90;;;3.58;;
53654;SDS011;39558;52.028;8.536;2023-03-01T07:53:48;7.78;;;4.60;;
53654;SDS011;39558;52.028;8.536;2023-03-01T07:56:15;6.38;;;4.25;;
53654;SDS011;39558;52.028;8.536;2023-03-01T07:58:43;7.38;;;4.20;;
53654;SDS011;39558;52.028;8.536;2023-03-01T08:01:14;5.53;;;3.72;;
53654;SDS011;39558;52.028;8.536;2023-03-01T08:03:40;7.15;;;4.05;;
53654;SDS011;39558;52.028;8.536;2023-03-01T08:06:07;8.50;;;4.30;;
53654;SDS011;39558;52.028;8.536;2023-03-01T08:08:34;6.10;;;3.72;;
53654;SDS011;39558;52.028;8.536;2023-03-01T08:11:01;6.93;;;3.97;;
53654;SDS011;39558;52.028;8.536;2023-03-01T08:13:29;6.30;;;3.97;;
53654;SDS011;39558;52.028;8.536;2023-03-01T08:16:00;6.18;;;3.80;;
53654;SDS011;39558;52.028;8.536;2023-03-01T08:18:26;8.00;;;3.80;;
53654;SDS011;39558;52.028;8.536;2023-03-01T08:20:52;5.93;;;3.85;;
53654;SDS011;39558;52.028;8.536;2023-03-01T08:23:17;5.68;;;3.20;;
53654;SDS011;39558;52.028;8.536;2023-03-01T08:25:43;5.80;;;3.45;;
53654;SDS011;39558;52.028;8.536;2023-03-01T08:28:09;6.40;;;3.65;;
53654;SDS011;39558;52.028;8.536;2023-03-01T08:30:35;6.10;;;3.50;;
53654;SDS011;39558;52.028;8.536;2023-03-01T08:33:01;5.95;;;3.55;;
53654;SDS011;39558;52.028;8.536;2023-03-01T08:35:27;6.93;;;3.63;;
53654;SDS011;39558;52.028;8.536;2023-03-01T08:37:53;6.43;;;3.70;;
53654;SDS011;39558;52.028;8.536;2023-03-01T08:40:19;6.57;;;3.92;;
53654;SDS011;39558;52.028;8.536;2023-03-01T08:42:45;7.45;;;3.70;;
53654;SDS011;39558;52.028;8.536;2023-03-01T08:45:11;5.95;;;3.47;;
53654;SDS011;39558;52.028;8.536;2023-03-01T08:47:38;7.75;;;3.42;;
53654;SDS011;39558;52.028;8.536;2023-03-01T08:50:04;6.22;;;3.55;;
53654;SDS011;39558;52.028;8.536;2023-03-01T08:52:31;6.00;;;3.40;;
53654;SDS011;39558;52.028;8.536;2023-03-01T08:54:57;5.05;;;2.88;;
53654;SDS011;39558;52.028;8.536;2023-03-01T08:57:23;7.80;;;4.05;;
53654;SDS011;39558;52.028;8.536;2023-03-01T08:59:49;6.05;;;3.50;;
53654;SDS011;39558;52.028;8.536;2023-03-01T09:02:16;7.35;;;3.42;;
53654;SDS011;39558;52.028;8.536;2023-03-01T09:04:42;5.13;;;3.15;;
53654;SDS011;39558;52.028;8.536;2023-03-01T09:07:09;5.72;;;3.10;;
53654;SDS011;39558;52.028;8.536;2023-03-01T09:09:35;4.70;;;2.78;;
53654;SDS011;39558;52.028;8.536;2023-03-01T09:12:02;5.53;;;3.33;;
53654;SDS011;39558;52.028;8.536;2023-03-01T09:14:29;7.03;;;3.47;;
53654;SDS011;39558;52.028;8.536;2023-03-01T09:16:55;5.97;;;3.25;;
53654;SDS011;39558;52.028;8.536;2023-03-01T09:19:21;6.03;;;3.38;;
53654;SDS011;39558;52.028;8.536;2023-03-01T09:21:47;5.05;;;2.67;;
53654;SDS011;39558;52.028;8.536;2023-03-01T09:24:21;5.50;;;3.53;;
53654;SDS011;39558;52.028;8.536;2023-03-01T09:26:47;6.07;;;3.42;;
53654;SDS011;39558;52.028;8.536;2023-03-01T09:29:13;4.70;;;2.95;;
53654;SDS011;39558;52.028;8.536;2023-03-01T09:31:39;5.82;;;2.92;;
53654;SDS011;39558;52.028;8.536;2023-03-01T09:34:05;5.75;;;3.63;;
53654;SDS011;39558;52.028;8.536;2023-03-01T09:36:31;6.60;;;2.92;;
53654;SDS011;39558;52.028;8.536;2023-03-01T09:38:58;4.32;;;2.65;;
53654;SDS011;39558;52.028;8.536;2023-03-01T09:41:44;6.28;;;3.22;;
53654;SDS011;39558;52.028;8.536;2023-03-01T09:44:13;4.97;;;2.83;;
53654;SDS011;39558;52.028;8.536;2023-03-01T09:46:42;5.25;;;2.80;;
53654;SDS011;39558;52.028;8.536;2023-03-01T09:49:10;5.13;;;3.17;;
53654;SDS011;39558;52.028;8.536;2023-03-01T09:51:37;4.53;;;2.53;;
53654;SDS011;39558;52.028;8.536;2023-03-01T09:54:05;5.70;;;3.00;;
53654;SDS011;39558;52.028;8.536;2023-03-01T09:56:34;4.93;;;2.63;;
53654;SDS011;39558;52.028;8.536;2023-03-01T09:59:07;4.53;;;2.83;;
53654;SDS011;39558;52.028;8.536;2023-03-01T10:07:02;5.30;;;2.42;;
53654;SDS011;39558;52.028;8.536;2023-03-01T10:09:33;5.65;;;2.72;;
53654;SDS011;39558;52.028;8.536;2023-03-01T10:12:00;4.10;;;2.38;;
53654;SDS011;39558;52.028;8.536;2023-03-01T10:14:30;4.55;;;2.33;;
53654;SDS011;39558;52.028;8.536;2023-03-01T10:17:03;4.22;;;2.45;;
53654;SDS011;39558;52.028;8.536;2023-03-01T10:19:32;4.32;;;2.70;;
53654;SDS011;39558;52.028;8.536;2023-03-01T10:22:03;4.80;;;2.72;;
53654;SDS011;39558;52.028;8.536;2023-03-01T10:24:31;4.45;;;2.58;;
53654;SDS011;39558;52.028;8.536;2023-03-01T10:27:13;4.28;;;2.33;;
53654;SDS011;39558;52.028;8.536;2023-03-01T10:29:46;5.43;;;2.67;;
53654;SDS011;39558;52.028;8.536;2023-03-01T10:32:14;4.65;;;2.42;;
53654;SDS011;39558;52.028;8.536;2023-03-01T10:34:40;4.53;;;2.75;;
53654;SDS011;39558;52.028;8.536;2023-03-01T10:37:16;6.18;;;2.88;;
53654;SDS011;39558;52.028;8.536;2023-03-01T10:39:57;4.60;;;1.92;;
53654;SDS011;39558;52.028;8.536;2023-03-01T10:42:33;3.70;;;2.20;;
53654;SDS011;39558;52.028;8.536;2023-03-01T10:45:27;4.15;;;2.20;;
53654;SDS011;39558;52.028;8.536;2023-03-01T10:47:45;5.85;;;2.40;;
53654;SDS011;39558;52.028;8.536;2023-03-01T10:50:21;5.20;;;2.33;;
53654;SDS011;39558;52.028;8.536;2023-03-01T10:52:55;3.80;;;2.10;;
53654;SDS011;39558;52.028;8.536;2023-03-01T10:55:35;4.28;;;2.30;;
53654;SDS011;39558;52.028;8.536;2023-03-01T10:58:08;5.20;;;2.40;;
53654;SDS011;39558;52.028;8.536;2023-03-01T11:00:45;4.72;;;2.20;;
53654;SDS011;39558;52.028;8.536;2023-03-01T11:03:12;5.13;;;2.20;;
53654;SDS011;39558;52.028;8.536;2023-03-01T11:08:31;3.53;;;2.13;;
53654;SDS011;39558;52.028;8.536;2023-03-01T11:11:04;4.18;;;2.10;;
53654;SDS011;39558;52.028;8.536;2023-03-01T11:13:30;4.25;;;1.83;;
53654;SDS011;39558;52.028;8.536;2023-03-01T11:16:00;6.70;;;2.05;;
53654;SDS011;39558;52.028;8.536;2023-03-01T11:20:53;3.88;;;2.10;;
53654;SDS011;39558;52.028;8.536;2023-03-01T11:23:21;3.70;;;2.08;;
53654;SDS011;39558;52.028;8.536;2023-03-01T11:25:49;3.72;;;2.08;;
53654;SDS011;39558;52.028;8.536;2023-03-01T11:28:17;3.53;;;2.00;;
53654;SDS011;39558;52.028;8.536;2023-03-01T11:33:16;4.72;;;2.30;;
53654;SDS011;39558;52.028;8.536;2023-03-01T11:35:46;2.97;;;1.70;;
53654;SDS011;39558;52.028;8.536;2023-03-01T11:38:24;2.97;;;1.65;;
53654;SDS011;39558;52.028;8.536;2023-03-01T11:46:26;3.67;;;1.70;;
53654;SDS011;39558;52.028;8.536;2023-03-01T11:49:03;5.35;;;1.85;;
53654;SDS011;39558;52.028;8.536;2023-03-01T11:51:37;2.95;;;1.60;;
53654;SDS011;39558;52.028;8.536;2023-03-01T11:54:15;5.63;;;2.40;;
53654;SDS011;39558;52.028;8.536;2023-03-01T11:56:49;3.67;;;1.67;;
53654;SDS011;39558;52.028;8.536;2023-03-01T12:09:17;3.63;;;1.50;;
53654;SDS011;39558;52.028;8.536;2023-03-01T12:11:52;3.35;;;1.70;;
53654;SDS011;39558;52.028;8.536;2023-03-01T12:14:43;3.38;;;1.50;;
53654;SDS011;39558;52.028;8.536;2023-03-01T12:22:28;4.07;;;1.70;;
53654;SDS011;39558;52.028;8.536;2023-03-01T12:25:08;4.10;;;1.55;;
53654;SDS011;39558;52.028;8.536;2023-03-01T12:27:45;5.00;;;1.98;;
53654;SDS011;39558;52.028;8.536;2023-03-01T12:30:24;3.13;;;1.60;;
53654;SDS011;39558;52.028;8.536;2023-03-01T12:32:56;4.35;;;1.90;;
53654;SDS011;39558;52.028;8.536;2023-03-01T12:35:31;4.65;;;1.40;;
53654;SDS011;39558;52.028;8.536;2023-03-01T12:40:41;2.85;;;1.30;;
53654;SDS011;39558;52.028;8.536;2023-03-01T12:46:09;3.92;;;1.55;;
53654;SDS011;39558;52.028;8.536;2023-03-01T12:48:47;2.42;;;1.40;;
53654;SDS011;39558;52.028;8.536;2023-03-01T12:51:21;3.45;;;1.60;;
53654;SDS011;39558;52.028;8.536;2023-03-01T12:53:49;4.13;;;1.60;;
53654;SDS011;39558;52.028;8.536;2023-03-01T12:56:22;3.38;;;1.40;;
53654;SDS011;39558;52.028;8.536;2023-03-01T12:59:01;2.97;;;1.42;;
53654;SDS011;39558;52.028;8.536;2023-03-01T13:01:33;3.72;;;1.50;;
53654;SDS011;39558;52.028;8.536;2023-03-01T13:07:09;2.67;;;1.25;;
53654;SDS011;39558;52.028;8.536;2023-03-01T13:14:53;2.20;;;1.05;;
53654;SDS011;39558;52.028;8.536;2023-03-01T13:17:33;2.05;;;0.98;;
53654;SDS011;39558;52.028;8.536;2023-03-01T13:20:11;2.42;;;1.15;;
53654;SDS011;39558;52.028;8.536;2023-03-01T13:22:37;2.47;;;1.20;;
53654;SDS011;39558;52.028;8.536;2023-03-01T13:25:19;2.63;;;1.35;;
53654;SDS011;39558;52.028;8.536;2023-03-01T13:27:46;3.28;;;1.30;;
53654;SDS011;39558;52.028;8.536;2023-03-01T13:35:49;3.03;;;1.08;;
53654;SDS011;39558;52.028;8.536;2023-03-01T13:41:00;3.65;;;1.00;;
53654;SDS011;39558;52.028;8.536;2023-03-01T13:43:28;2.08;;;1.13;;
53654;SDS011;39558;52.028;8.536;2023-03-01T13:45:55;3.17;;;1.23;;
53654;SDS011;39558;52.028;8.536;2023-03-01T13:48:22;2.42;;;1.23;;
53654;SDS011;39558;52.028;8.536;2023-03-01T13:50:54;3.70;;;1.00;;
53654;SDS011;39558;52.028;8.536;2023-03-01T13:53:22;2.80;;;1.17;;
53654;SDS011;39558;52.028;8.536;2023-03-01T13:55:51;3.55;;;1.08;;
53654;SDS011;39558;52.028;8.536;2023-03-01T13:58:21;3.67;;;1.30;;
53654;SDS011;39558;52.028;8.536;2023-03-01T14:00:54;2.35;;;1.30;;
53654;SDS011;39558;52.028;8.536;2023-03-01T14:03:20;2.20;;;1.02;;
53654;SDS011;39558;52.028;8.536;2023-03-01T14:08:32;2.05;;;0.90;;
53654;SDS011;39558;52.028;8.536;2023-03-01T14:11:20;2.80;;;1.02;;
53654;SDS011;39558;52.028;8.536;2023-03-01T14:16:42;4.97;;;0.98;;
53654;SDS011;39558;52.028;8.536;2023-03-01T14:19:15;1.70;;;0.80;;
53654;SDS011;39558;52.028;8.536;2023-03-01T14:21:43;2.72;;;1.25;;
53654;SDS011;39558;52.028;8.536;2023-03-01T14:24:16;2.83;;;1.10;;
53654;SDS011;39558;52.028;8.536;2023-03-01T14:26:43;2.38;;;1.08;;
53654;SDS011;39558;52.028;8.536;2023-03-01T14:29:33;2.38;;;1.02;;
53654;SDS011;39558;52.028;8.536;2023-03-01T14:32:20;1.75;;;1.08;;
53654;SDS011;39558;52.028;8.536;2023-03-01T14:34:47;2.45;;;0.93;;
53654;SDS011;39558;52.028;8.536;2023-03-01T14:37:33;1.95;;;0.75;;
53654;SDS011;39558;52.028;8.536;2023-03-01T14:39:59;3.95;;;1.13;;
53654;SDS011;39558;52.028;8.536;2023-03-01T14:42:27;2.28;;;0.90;;
53654;SDS011;39558;52.028;8.536;2023-03-01T14:44:54;2.80;;;1.00;;
53654;SDS011;39558;52.028;8.536;2023-03-01T14:47:33;1.85;;;0.93;;
53654;SDS011;39558;52.028;8.536;2023-03-01T14:50:05;2.33;;;0.77;;
53654;SDS011;39558;52.028;8.536;2023-03-01T14:52:34;10.68;;;1.15;;
53654;SDS011;39558;52.028;8.536;2023-03-01T14:55:01;3.20;;;0.75;;
53654;SDS011;39558;52.028;8.536;2023-03-01T14:57:28;3.03;;;0.88;;
53654;SDS011;39558;52.028;8.536;2023-03-01T14:59:55;1.55;;;0.80;;
53654;SDS011;39558;52.028;8.536;2023-03-01T15:02:24;1.77;;;0.68;;
53654;SDS011;39558;52.028;8.536;2023-03-01T15:04:57;1.15;;;0.75;;
53654;SDS011;39558;52.028;8.536;2023-03-01T15:07:31;1.70;;;0.70;;
53654;SDS011;39558;52.028;8.536;2023-03-01T15:09:58;0.80;;;0.50;;
53654;SDS011;39558;52.028;8.536;2023-03-01T15:14:54;2.58;;;0.98;;
53654;SDS011;39558;52.028;8.536;2023-03-01T15:17:36;0.85;;;0.55;;
53654;SDS011;39558;52.028;8.536;2023-03-01T15:20:04;2.03;;;0.80;;
53654;SDS011;39558;52.028;8.536;2023-03-01T15:22:31;2.00;;;0.90;;
53654;SDS011;39558;52.028;8.536;2023-03-01T15:24:57;1.75;;;0.55;;
53654;SDS011;39558;52.028;8.536;2023-03-01T15:27:24;1.70;;;0.63;;
53654;SDS011;39558;52.028;8.536;2023-03-01T15:29:54;2.47;;;0.80;;
53654;SDS011;39558;52.028;8.536;2023-03-01T15:32:31;2.53;;;0.70;;
53654;SDS011;39558;52.028;8.536;2023-03-01T15:34:58;1.40;;;0.50;;
53654;SDS011;39558;52.028;8.536;2023-03-01T15:40:25;1.63;;;0.52;;
53654;SDS011;39558;52.028;8.536;2023-03-01T15:43:06;1.80;;;0.70;;
53654;SDS011;39558;52.028;8.536;2023-03-01T15:45:32;1.27;;;0.60;;
53654;SDS011;39558;52.028;8.536;2023-03-01T15:48:04;2.10;;;0.70;;
53654;SDS011;39558;52.028;8.536;2023-03-01T15:50:31;1.27;;;0.60;;
53654;SDS011;39558;52.028;8.536;2023-03-01T15:52:58;1.50;;;0.70;;
53654;SDS011;39558;52.028;8.536;2023-03-01T15:55:26;1.08;;;0.60;;
53654;SDS011;39558;52.028;8.536;2023-03-01T15:58:05;3.03;;;0.55;;
53654;SDS011;39558;52.028;8.536;2023-03-01T16:00:32;1.30;;;0.70;;
53654;SDS011;39558;52.028;8.536;2023-03-01T16:02:58;1.63;;;0.68;;
53654;SDS011;39558;52.028;8.536;2023-03-01T16:05:25;2.88;;;0.90;;
53654;SDS011;39558;52.028;8.536;2023-03-01T16:07:52;1.30;;;0.60;;
53654;SDS011;39558;52.028;8.536;2023-03-01T16:10:20;0.98;;;0.50;;